createdAt,value
2018-04-06T00:00:04.210Z,97.50
2018-04-06T00:03:08.346Z,97.80
2018-04-06T00:06:11.706Z,97.80
2018-04-06T00:09:15.203Z,98.00
2018-04-06T00:12:19.354Z,98.10
2018-04-06T00:15:22.716Z,98.10
2018-04-06T00:18:26.833Z,98.10
2018-04-06T00:21:30.194Z,98.10
2018-04-06T00:24:33.577Z,97.90
2018-04-06T00:27:36.927Z,98.10
2018-04-06T00:30:41.783Z,98.00
2018-04-06T00:33:46.017Z,98.00
2018-04-06T00:36:49.385Z,98.00
2018-04-06T00:39:52.742Z,97.90
2018-04-06T00:42:56.108Z,97.60
2018-04-06T00:46:00.272Z,97.70
2018-04-06T00:49:03.728Z,97.70
2018-04-06T00:52:07.855Z,98.00
2018-04-06T00:55:11.205Z,98.00
2018-04-06T00:58:14.560Z,98.40
2018-04-06T01:01:17.957Z,98.40
2018-04-06T01:04:21.308Z,98.70
2018-04-06T01:07:24.666Z,99.00
2018-04-06T01:10:28.022Z,99.00
2018-04-06T01:13:31.374Z,99.20
2018-04-06T01:16:34.720Z,99.50
2018-04-06T01:19:38.860Z,99.90
2018-04-06T01:22:42.236Z,99.90
2018-04-06T01:25:46.358Z,99.90
2018-04-06T01:28:50.477Z,99.90
2018-04-06T01:31:54.616Z,99.90
2018-04-06T01:34:58.021Z,99.90
2018-04-06T01:38:01.377Z,99.90
2018-04-06T01:41:04.724Z,99.90
2018-04-06T01:44:08.085Z,99.90
2018-04-06T01:47:12.226Z,99.90
2018-04-06T01:50:15.732Z,99.90
2018-04-06T01:53:19.076Z,99.90
2018-04-06T01:56:22.441Z,99.90
2018-04-06T01:59:25.865Z,99.90
2018-04-06T02:02:29.236Z,99.90
2018-04-06T02:05:32.593Z,99.90
2018-04-06T02:08:36.772Z,99.90
2018-04-06T02:11:40.131Z,99.90
2018-04-06T02:14:44.246Z,99.90
2018-04-06T02:17:48.362Z,99.90
2018-04-06T02:20:52.515Z,99.90
2018-04-06T02:23:55.901Z,99.90
2018-04-06T02:26:59.253Z,99.90
2018-04-06T02:30:02.599Z,99.90
2018-04-06T02:33:05.965Z,99.90
2018-04-06T02:36:10.094Z,99.70
2018-04-06T02:39:14.282Z,99.50
2018-04-06T02:42:17.790Z,99.80
2018-04-06T02:45:21.220Z,99.10
2018-04-06T02:48:24.669Z,99.30
2018-04-06T02:51:28.047Z,98.80
2018-04-06T02:54:31.398Z,98.30
2018-04-06T02:57:35.526Z,98.30
2018-04-06T03:00:39.858Z,98.30
2018-04-06T03:03:43.214Z,98.20
2018-04-06T03:06:48.073Z,98.20
2018-04-06T03:09:52.179Z,98.50
2018-04-06T03:12:55.529Z,98.50
2018-04-06T03:15:58.874Z,98.70
2018-04-06T03:19:02.231Z,98.50
2018-04-06T03:22:05.582Z,98.60
2018-04-06T03:25:09.697Z,98.70
2018-04-06T03:28:13.973Z,98.80
2018-04-06T03:31:17.331Z,98.80
2018-04-06T03:34:20.692Z,98.80
2018-04-06T03:37:25.570Z,98.60
2018-04-06T03:40:28.969Z,99.00
2018-04-06T03:43:32.369Z,98.90
2018-04-06T03:46:35.937Z,98.90
2018-04-06T03:49:40.801Z,98.80
2018-04-06T03:52:44.157Z,98.70
2018-04-06T03:55:47.739Z,98.80
2018-04-06T03:58:51.084Z,98.90
2018-04-06T04:01:55.203Z,99.30
2018-04-06T04:04:59.332Z,99.30
2018-04-06T04:08:03.447Z,99.30
2018-04-06T04:11:07.749Z,99.50
2018-04-06T04:14:11.104Z,99.50
2018-04-06T04:17:14.459Z,99.70
2018-04-06T04:20:18.600Z,99.90
2018-04-06T04:23:22.097Z,99.90
2018-04-06T04:26:25.450Z,99.90
2018-04-06T04:29:29.593Z,99.90
2018-04-06T04:32:33.721Z,99.90
2018-04-06T04:35:37.833Z,99.90
2018-04-06T04:38:41.942Z,99.90
2018-04-06T04:41:46.069Z,99.90
2018-04-06T04:44:50.206Z,99.90
2018-04-06T04:47:53.569Z,99.90
2018-04-06T04:50:57.682Z,99.90
2018-04-06T04:54:01.055Z,99.90
2018-04-06T04:57:04.424Z,99.90
2018-04-06T05:00:07.789Z,99.90
2018-04-06T05:03:11.919Z,99.90
2018-04-06T05:06:15.278Z,99.90
2018-04-06T05:09:20.329Z,99.90
2018-04-06T05:12:23.692Z,99.90
2018-04-06T05:15:27.063Z,99.90
2018-04-06T05:18:30.421Z,99.90
2018-04-06T05:21:33.800Z,99.90
2018-04-06T05:24:37.211Z,99.90
2018-04-06T05:27:40.523Z,99.90
2018-04-06T05:30:43.899Z,99.90
2018-04-06T05:33:47.254Z,99.90
2018-04-06T05:36:50.617Z,99.90
2018-04-06T05:39:53.981Z,99.60
2018-04-06T05:42:57.381Z,99.50
2018-04-06T05:46:00.739Z,99.30
2018-04-06T05:49:04.842Z,98.70
2018-04-06T05:52:08.964Z,98.60
2018-04-06T05:55:13.091Z,98.30
2018-04-06T05:58:17.220Z,98.30
2018-04-06T06:01:20.580Z,98.30
2018-04-06T06:04:25.466Z,98.10
2018-04-06T06:07:28.804Z,98.10
2018-04-06T06:10:32.170Z,97.80
2018-04-06T06:13:35.544Z,97.60
2018-04-06T06:16:38.903Z,97.30
2018-04-06T06:19:42.265Z,97.10
2018-04-06T06:22:46.403Z,97.00
2018-04-06T06:25:49.764Z,97.00
2018-04-06T06:28:53.150Z,96.80
2018-04-06T06:31:56.523Z,96.70
2018-04-06T06:34:59.887Z,96.50
2018-04-06T06:38:03.248Z,96.50
2018-04-06T06:41:06.747Z,96.30
2018-04-06T06:44:10.898Z,96.10
2018-04-06T06:47:14.544Z,96.10
2018-04-06T06:50:17.975Z,95.80
2018-04-06T06:53:21.487Z,95.80
2018-04-06T06:56:24.856Z,95.50
2018-04-06T06:59:28.982Z,95.40
2018-04-06T07:02:33.126Z,94.90
2018-04-06T07:05:36.496Z,94.90
2018-04-06T07:08:40.613Z,94.70
2018-04-06T07:11:44.746Z,94.30
2018-04-06T07:14:48.151Z,94.20
2018-04-06T07:17:51.513Z,94.00
2018-04-06T07:20:54.919Z,93.60
2018-04-06T07:23:59.070Z,92.50
2018-04-06T07:27:02.422Z,93.30
2018-04-06T07:30:05.806Z,92.90
2018-04-06T07:33:09.170Z,93.00
2018-04-06T07:36:12.592Z,92.70
2018-04-06T07:39:16.088Z,92.60
2018-04-06T07:42:19.436Z,92.70
2018-04-06T07:45:23.570Z,91.90
2018-04-06T07:48:26.930Z,91.80
2018-04-06T07:51:31.854Z,91.40
2018-04-06T07:54:35.284Z,91.30
2018-04-06T07:57:39.427Z,91.00
2018-04-06T08:00:42.799Z,91.00
2018-04-06T08:03:46.158Z,90.80
2018-04-06T08:06:49.518Z,90.80
2018-04-06T08:09:52.952Z,90.10
2018-04-06T08:12:56.346Z,88.90
2018-04-06T08:15:59.767Z,89.20
2018-04-06T08:19:03.133Z,87.90
2018-04-06T08:22:06.514Z,85.70
2018-04-06T08:25:09.914Z,85.40
2018-04-06T08:28:13.281Z,86.30
2018-04-06T08:31:17.393Z,84.60
2018-04-06T08:34:20.758Z,84.70
2018-04-06T08:37:24.127Z,84.70
2018-04-06T08:40:27.497Z,83.90
2018-04-06T08:43:30.874Z,82.40
2018-04-06T08:46:34.237Z,82.40
2018-04-06T08:49:37.589Z,80.90
2018-04-06T08:52:40.929Z,80.50
2018-04-06T08:55:44.295Z,80.60
2018-04-06T08:58:48.515Z,78.50
2018-04-06T09:01:51.899Z,78.50
2018-04-06T09:04:55.285Z,78.10
2018-04-06T09:07:58.648Z,76.90
2018-04-06T09:11:02.036Z,76.50
2018-04-06T09:14:05.465Z,74.70
2018-04-06T09:17:08.835Z,74.80
2018-04-06T09:20:12.213Z,76.50
2018-04-06T09:23:15.635Z,74.50
2018-04-06T09:26:19.816Z,70.00
2018-04-06T09:29:23.929Z,70.00
2018-04-06T09:32:27.347Z,70.10
2018-04-06T09:35:31.456Z,69.20
2018-04-06T09:38:34.811Z,69.20
2018-04-06T09:41:38.397Z,68.60
2018-04-06T09:44:41.755Z,68.20
2018-04-06T09:47:45.192Z,68.80
2018-04-06T09:50:48.550Z,68.20
2018-04-06T09:53:51.908Z,64.90
2018-04-06T09:56:55.256Z,64.60
2018-04-06T09:59:59.412Z,64.20
2018-04-06T10:03:03.715Z,64.20
2018-04-06T10:06:07.097Z,66.20
2018-04-06T10:09:10.518Z,65.90
2018-04-06T10:12:14.020Z,62.20
2018-04-06T10:15:18.164Z,64.90
2018-04-06T10:18:21.514Z,64.90
2018-04-06T10:21:24.921Z,64.80
2018-04-06T10:24:29.107Z,61.10
2018-04-06T10:27:32.605Z,61.10
2018-04-06T10:30:35.973Z,63.00
2018-04-06T10:33:39.358Z,62.60
2018-04-06T10:36:42.855Z,59.10
2018-04-06T10:39:46.989Z,57.60
2018-04-06T10:42:50.381Z,57.50
2018-04-06T10:45:53.866Z,58.50
2018-04-06T10:48:58.019Z,59.40
2018-04-06T10:52:01.361Z,59.30
2018-04-06T10:55:04.750Z,59.80
2018-04-06T10:58:08.151Z,56.50
2018-04-06T11:01:11.594Z,57.10
2018-04-06T11:04:14.959Z,56.50
2018-04-06T11:07:18.348Z,56.40
2018-04-06T11:10:21.816Z,57.90
2018-04-06T11:13:25.240Z,56.90
2018-04-06T11:16:28.714Z,56.50
2018-04-06T11:19:32.222Z,57.80
2018-04-06T11:22:35.591Z,58.40
2018-04-06T11:25:39.729Z,57.10
2018-04-06T11:28:43.111Z,57.10
2018-04-06T11:31:47.246Z,55.40
2018-04-06T11:34:50.609Z,55.30
2018-04-06T11:37:55.579Z,56.90
2018-04-06T11:40:58.990Z,56.90
2018-04-06T11:44:02.445Z,57.20
2018-04-06T11:47:06.663Z,55.70
2018-04-06T11:50:10.799Z,55.20
2018-04-06T11:53:14.406Z,55.20
2018-04-06T11:56:17.776Z,54.60
2018-04-06T11:59:21.194Z,55.40
2018-04-06T12:02:25.357Z,53.50
2018-04-06T12:05:28.822Z,53.50
2018-04-06T12:08:32.191Z,54.00
2018-04-06T12:11:35.629Z,53.60
2018-04-06T12:14:39.130Z,53.10
2018-04-06T12:17:42.493Z,53.00
2018-04-06T12:20:45.858Z,51.70
2018-04-06T12:23:49.238Z,53.50
2018-04-06T12:26:52.610Z,52.70
2018-04-06T12:29:56.746Z,54.90
2018-04-06T12:33:00.115Z,54.90
2018-04-06T12:36:04.241Z,54.00
2018-04-06T12:39:07.609Z,54.30
2018-04-06T12:42:11.001Z,53.20
2018-04-06T12:45:14.384Z,52.60
2018-04-06T12:48:17.761Z,52.80
2018-04-06T12:51:21.139Z,53.00
2018-04-06T12:54:25.294Z,52.10
2018-04-06T12:57:28.700Z,52.10
2018-04-06T13:00:32.065Z,52.00
2018-04-06T13:03:36.406Z,52.90
2018-04-06T13:06:39.753Z,52.90
2018-04-06T13:09:43.099Z,53.00
2018-04-06T13:12:46.536Z,52.20
2018-04-06T13:15:49.968Z,51.80
2018-04-06T13:18:54.111Z,51.50
2018-04-06T13:21:57.499Z,51.50
2018-04-06T13:25:01.621Z,50.20
2018-04-06T13:28:05.011Z,50.80
2018-04-06T13:31:09.179Z,49.60
2018-04-06T13:34:12.657Z,49.60
2018-04-06T13:37:16.036Z,50.50
2018-04-06T13:40:20.179Z,46.50
2018-04-06T13:43:23.559Z,46.40
2018-04-06T13:46:26.918Z,47.60
2018-04-06T13:49:30.295Z,48.90
2018-04-06T13:52:33.672Z,49.00
2018-04-06T13:55:37.065Z,48.20
2018-04-06T13:58:40.434Z,47.50
2018-04-06T14:01:44.567Z,45.80
2018-04-06T14:04:47.925Z,45.90
2018-04-06T14:07:51.286Z,47.70
2018-04-06T14:10:54.655Z,46.80
2018-04-06T14:13:58.796Z,50.10
2018-04-06T14:17:02.209Z,50.10
2018-04-06T14:20:05.630Z,49.50
2018-04-06T14:23:09.027Z,49.40
2018-04-06T14:26:12.390Z,48.90
2018-04-06T14:29:15.750Z,48.30
2018-04-06T14:32:19.114Z,49.40
2018-04-06T14:35:22.491Z,48.00
2018-04-06T14:38:25.952Z,49.60
2018-04-06T14:41:29.322Z,49.40
2018-04-06T14:44:32.679Z,49.30
2018-04-06T14:47:36.044Z,49.40
2018-04-06T14:50:39.493Z,48.60
2018-04-06T14:53:42.880Z,47.70
2018-04-06T14:56:46.276Z,48.50
2018-04-06T14:59:49.642Z,47.70
2018-04-06T15:02:53.070Z,48.10
2018-04-06T15:05:57.221Z,48.80
2018-04-06T15:09:00.684Z,48.80
2018-04-06T15:12:04.066Z,48.90
2018-04-06T15:15:07.454Z,48.30
2018-04-06T15:18:10.882Z,48.70
2018-04-06T15:21:15.157Z,48.80
2018-04-06T15:24:18.609Z,48.70
2018-04-06T15:27:22.096Z,49.80
2018-04-06T15:30:26.339Z,51.70
2018-04-06T15:33:29.698Z,51.60
2018-04-06T15:36:33.073Z,51.50
2018-04-06T15:39:36.473Z,51.20
2018-04-06T15:42:39.827Z,51.60
2018-04-06T15:45:44.155Z,51.70
2018-04-06T15:48:47.532Z,52.00
2018-04-06T15:51:51.675Z,52.00
2018-04-06T15:54:55.099Z,52.00
2018-04-06T15:57:58.482Z,51.30
2018-04-06T16:01:01.875Z,51.60
2018-04-06T16:04:05.309Z,50.80
2018-04-06T16:07:08.693Z,49.80
2018-04-06T16:10:12.202Z,48.10
2018-04-06T16:13:15.577Z,48.60
2018-04-06T16:16:18.940Z,49.20
2018-04-06T16:19:23.082Z,49.70
2018-04-06T16:22:26.438Z,49.40
2018-04-06T16:25:29.819Z,50.60
2018-04-06T16:28:33.189Z,51.60
2018-04-06T16:31:36.642Z,51.80
2018-04-06T16:34:40.028Z,52.50
2018-04-06T16:37:43.402Z,52.60
2018-04-06T16:40:46.786Z,52.70
2018-04-06T16:43:50.138Z,52.30
2018-04-06T16:46:53.535Z,52.70
2018-04-06T16:49:56.915Z,53.30
2018-04-06T16:53:00.300Z,54.20
2018-04-06T16:56:03.662Z,55.40
2018-04-06T16:59:07.807Z,57.40
2018-04-06T17:02:11.231Z,57.40
2018-04-06T17:05:14.620Z,58.50
2018-04-06T17:08:18.009Z,59.90
2018-04-06T17:11:21.466Z,62.50
2018-04-06T17:14:24.920Z,63.70
2018-04-06T17:17:28.300Z,65.30
2018-04-06T17:20:31.670Z,65.10
2018-04-06T17:23:35.828Z,67.20
2018-04-06T17:26:39.203Z,67.10
2018-04-06T17:29:42.694Z,68.70
2018-04-06T17:32:46.955Z,70.80
2018-04-06T17:35:50.322Z,70.90
2018-04-06T17:38:54.539Z,73.30
2018-04-06T17:41:58.674Z,74.70
2018-04-06T17:45:02.054Z,74.70
2018-04-06T17:48:06.229Z,77.20
2018-04-06T17:51:09.604Z,77.30
2018-04-06T17:54:12.982Z,79.00
2018-04-06T17:57:16.428Z,80.00
2018-04-06T18:00:19.788Z,80.40
2018-04-06T18:03:23.165Z,81.00
2018-04-06T18:06:27.315Z,80.40
2018-04-06T18:09:30.696Z,80.30
2018-04-06T18:12:34.069Z,80.10
2018-04-06T18:15:37.428Z,79.80
2018-04-06T18:18:40.788Z,79.50
2018-04-06T18:21:44.926Z,78.50
2018-04-06T18:24:48.396Z,78.50
2018-04-06T18:27:52.598Z,78.60
2018-04-06T18:30:55.950Z,78.60
2018-04-06T18:34:00.102Z,79.30
2018-04-06T18:37:05.009Z,79.50
2018-04-06T18:40:08.425Z,79.40
2018-04-06T18:43:11.799Z,79.40
2018-04-06T18:46:15.166Z,78.60
2018-04-06T18:49:19.306Z,78.00
2018-04-06T18:52:22.704Z,78.00
2018-04-06T18:55:26.056Z,78.10
2018-04-06T18:58:29.491Z,78.20
2018-04-06T19:01:32.827Z,78.00
2018-04-06T19:04:36.222Z,77.80
2018-04-06T19:07:38.869Z,77.40
2018-04-06T19:10:43.110Z,76.90
2018-04-06T19:13:46.491Z,76.90
2018-04-06T19:16:49.895Z,76.70
2018-04-06T19:19:53.266Z,76.00
2018-04-06T19:22:56.632Z,76.50
2018-04-06T19:26:00.110Z,76.80
2018-04-06T19:29:03.515Z,76.70
2018-04-06T19:32:06.883Z,76.90
2018-04-06T19:35:11.009Z,76.80
2018-04-06T19:38:14.382Z,76.80
2018-04-06T19:41:17.807Z,76.70
2018-04-06T19:44:21.183Z,76.50
2018-04-06T19:47:25.418Z,77.60
2018-04-06T19:50:29.527Z,76.80
2018-04-06T19:53:33.707Z,76.80
2018-04-06T19:56:37.111Z,76.80
2018-04-06T19:59:40.436Z,77.20
2018-04-06T20:02:44.567Z,78.30
2018-04-06T20:05:48.720Z,77.40
2018-04-06T20:08:52.104Z,77.40
2018-04-06T20:11:55.524Z,77.50
2018-04-06T20:14:58.877Z,77.20
2018-04-06T20:18:03.001Z,76.70
2018-04-06T20:21:07.132Z,76.80
2018-04-06T20:24:10.494Z,76.70
2018-04-06T20:27:13.941Z,77.10
2018-04-06T20:30:17.318Z,77.00
2018-04-06T20:33:21.438Z,76.50
2018-04-06T20:36:24.912Z,76.50
2018-04-06T20:39:28.282Z,76.50
2018-04-06T20:42:30.913Z,76.50
2018-04-06T20:45:35.139Z,76.90
2018-04-06T20:48:38.532Z,76.80
2018-04-06T20:51:42.676Z,76.50
2018-04-06T20:54:46.063Z,76.40
2018-04-06T20:57:49.435Z,76.40
2018-04-06T21:00:52.827Z,76.80
2018-04-06T21:03:56.381Z,77.40
2018-04-06T21:06:59.744Z,77.40
2018-04-06T21:10:03.863Z,77.40
2018-04-06T21:13:07.990Z,77.60
2018-04-06T21:16:11.350Z,77.60
2018-04-06T21:19:14.753Z,78.30
2018-04-06T21:22:18.159Z,78.30
2018-04-06T21:25:21.538Z,78.30
2018-04-06T21:28:24.902Z,78.50
2018-04-06T21:31:28.271Z,78.90
2018-04-06T21:34:32.416Z,78.50
2018-04-06T21:37:35.797Z,78.50
2018-04-06T21:40:39.895Z,77.50
2018-04-06T21:43:43.320Z,77.50
2018-04-06T21:46:46.691Z,77.30
2018-04-06T21:49:50.066Z,76.90
2018-04-06T21:52:53.516Z,76.50
2018-04-06T21:55:56.157Z,76.40
2018-04-06T21:59:00.284Z,76.00
2018-04-06T22:02:03.642Z,76.00
2018-04-06T22:05:07.371Z,76.00
2018-04-06T22:08:10.767Z,75.90
2018-04-06T22:11:14.200Z,75.40
2018-04-06T22:14:18.387Z,75.40
2018-04-06T22:17:21.753Z,74.90
2018-04-06T22:20:25.155Z,75.00
2018-04-06T22:23:28.521Z,75.20
2018-04-06T22:26:32.741Z,74.20
2018-04-06T22:29:36.898Z,74.00
2018-04-06T22:32:40.292Z,73.90
2018-04-06T22:35:43.650Z,73.70
2018-04-06T22:38:47.078Z,73.90
2018-04-06T22:41:50.464Z,73.60
2018-04-06T22:44:54.598Z,73.20
2018-04-06T22:47:57.966Z,73.20
2018-04-06T22:51:02.100Z,74.40
2018-04-06T22:54:06.242Z,73.80
2018-04-06T22:57:09.603Z,73.80
2018-04-06T23:00:13.718Z,74.30
2018-04-06T23:03:17.840Z,74.40
2018-04-06T23:06:21.992Z,74.30
2018-04-06T23:09:25.390Z,74.30
2018-04-06T23:12:28.775Z,74.30
2018-04-06T23:15:32.181Z,74.80
2018-04-06T23:18:35.589Z,75.00
2018-04-06T23:21:39.148Z,75.50
2018-04-06T23:24:42.507Z,75.80
2018-04-06T23:27:45.871Z,75.70
2018-04-06T23:30:49.221Z,76.10
2018-04-06T23:33:52.565Z,76.00
2018-04-06T23:36:56.925Z,76.90
2018-04-06T23:40:00.291Z,76.90
2018-04-06T23:43:03.641Z,77.60
2018-04-06T23:46:06.993Z,78.10
2018-04-06T23:49:10.342Z,78.20
2018-04-06T23:52:13.720Z,78.10
2018-04-06T23:55:17.074Z,78.80
2018-04-06T23:58:21.209Z,78.80
